Time;durP1;ratioP1;P1;durP2;ratioP2;P2;SDS_P1;SDS_P2;PMS_P1;PMS_P2;Temp;Humidity;BMP_temperature;BMP_pressure;BME280_temperature;BME280_humidity;BME280_pressure;Samples;Min_cycle;Max_cycle;Signal;HPM_P1;HPM_P2
2023/08/30 00:00:34;;;;;;;15.18;10.60;;;;;;;;;;5050502;28;20036;-60
2023/08/30 00:03:00;;;;;;;15.00;11.23;;;;;;;;;;5049380;28;20025;-60
2023/08/30 00:05:27;;;;;;;14.68;10.02;;;;;;;;;;5050950;28;20106;-60
2023/08/30 00:07:53;;;;;;;14.95;10.52;;;;;;;;;;5051367;28;20036;-60
2023/08/30 00:10:19;;;;;;;13.57;10.60;;;;;;;;;;5050749;28;20033;-60
2023/08/30 00:12:44;;;;;;;13.82;10.70;;;;;;;;;;5051921;28;20021;-60
2023/08/30 00:15:10;;;;;;;13.70;10.50;;;;;;;;;;5051482;28;20047;-59
2023/08/30 00:17:35;;;;;;;13.50;10.05;;;;;;;;;;5054153;28;20033;-59
2023/08/30 00:20:00;;;;;;;16.42;11.80;;;;;;;;;;5054263;28;20389;-59
2023/08/30 00:22:27;;;;;;;15.27;11.77;;;;;;;;;;5054315;28;20499;-59
2023/08/30 00:24:53;;;;;;;16.25;12.40;;;;;;;;;;5054489;28;20028;-59
2023/08/30 00:27:20;;;;;;;16.42;11.43;;;;;;;;;;5039940;28;20350;-59
2023/08/30 00:29:46;;;;;;;14.15;11.48;;;;;;;;;;5046724;28;20036;-59
2023/08/30 00:32:11;;;;;;;14.85;10.90;;;;;;;;;;5055302;28;20029;-59
2023/08/30 00:34:37;;;;;;;17.35;12.38;;;;;;;;;;5054290;28;20040;-59
2023/08/30 00:37:02;;;;;;;17.92;11.05;;;;;;;;;;5053827;28;20044;-59
2023/08/30 00:39:28;;;;;;;19.40;12.60;;;;;;;;;;5054197;28;20025;-59
2023/08/30 00:41:53;;;;;;;21.23;13.80;;;;;;;;;;5054925;28;20028;-59
2023/08/30 00:44:18;;;;;;;16.35;12.63;;;;;;;;;;5050967;28;20041;-59
2023/08/30 00:46:44;;;;;;;16.88;12.57;;;;;;;;;;5044715;28;20114;-59
2023/08/30 00:49:10;;;;;;;17.50;12.23;;;;;;;;;;5054891;28;20040;-59
2023/08/30 00:51:36;;;;;;;18.20;12.38;;;;;;;;;;5054145;28;20437;-59
2023/08/30 00:54:02;;;;;;;18.30;13.13;;;;;;;;;;5053979;28;20049;-59
2023/08/30 00:56:28;;;;;;;17.63;12.63;;;;;;;;;;5053424;28;20064;-59
2023/08/30 00:58:53;;;;;;;19.73;12.98;;;;;;;;;;5052335;28;20036;-59
2023/08/30 01:01:19;;;;;;;18.92;13.60;;;;;;;;;;5036086;28;20030;-59
2023/08/30 01:03:45;;;;;;;16.48;13.02;;;;;;;;;;5052843;28;20025;-59
2023/08/30 01:06:10;;;;;;;18.65;12.05;;;;;;;;;;5054038;28;20048;-59
2023/08/30 01:08:37;;;;;;;19.30;12.40;;;;;;;;;;5033507;28;20037;-59
2023/08/30 01:11:12;;;;;;;18.95;12.13;;;;;;;;;;5033196;28;20026;-59
2023/08/30 01:13:44;;;;;;;17.48;12.15;;;;;;;;;;5033514;28;20037;-59
2023/08/30 01:16:10;;;;;;;16.33;12.50;;;;;;;;;;5032887;28;20541;-59
2023/08/30 01:18:39;;;;;;;18.65;13.10;;;;;;;;;;5032649;28;20366;-59
2023/08/30 01:21:09;;;;;;;17.80;12.75;;;;;;;;;;5035225;28;20082;-59
2023/08/30 01:24:07;;;;;;;16.67;11.53;;;;;;;;;;5053341;28;20381;-59
2023/08/30 01:26:42;;;;;;;17.83;12.10;;;;;;;;;;5048468;28;20440;-59
2023/08/30 01:29:11;;;;;;;16.55;12.13;;;;;;;;;;5054296;28;20025;-59
2023/08/30 01:31:38;;;;;;;17.05;12.43;;;;;;;;;;5052617;28;20037;-59
2023/08/30 01:34:03;;;;;;;22.23;14.35;;;;;;;;;;5053954;28;20473;-58
2023/08/30 01:36:30;;;;;;;19.23;13.68;;;;;;;;;;5040790;28;20036;-59
2023/08/30 01:38:58;;;;;;;19.73;14.00;;;;;;;;;;5052434;28;20031;-59
2023/08/30 01:41:24;;;;;;;21.52;13.25;;;;;;;;;;5053735;28;20028;-58
2023/08/30 01:43:52;;;;;;;21.77;13.68;;;;;;;;;;5052839;28;20025;-59
2023/08/30 01:46:19;;;;;;;23.98;15.00;;;;;;;;;;5053335;28;20090;-59
2023/08/30 01:48:46;;;;;;;21.45;14.77;;;;;;;;;;5052671;28;20051;-59
2023/08/30 01:51:13;;;;;;;24.85;14.70;;;;;;;;;;5052891;28;20091;-59
2023/08/30 01:53:38;;;;;;;21.75;14.80;;;;;;;;;;5051390;28;20105;-60
2023/08/30 01:56:04;;;;;;;20.88;14.10;;;;;;;;;;5042375;28;20041;-59
2023/08/30 01:58:29;;;;;;;21.88;15.07;;;;;;;;;;5033575;28;20042;-60
2023/08/30 02:00:55;;;;;;;23.02;15.43;;;;;;;;;;5034618;28;20029;-60
2023/08/30 02:03:20;;;;;;;25.13;16.98;;;;;;;;;;5033757;28;20034;-59
2023/08/30 02:06:04;;;;;;;26.52;17.05;;;;;;;;;;5032365;28;20036;-59
2023/08/30 02:08:44;;;;;;;25.48;16.73;;;;;;;;;;5033545;28;20025;-59
2023/08/30 02:11:17;;;;;;;22.48;15.65;;;;;;;;;;5033573;28;20025;-59
2023/08/30 02:13:44;;;;;;;24.30;15.77;;;;;;;;;;5032158;28;20132;-60
2023/08/30 02:16:12;;;;;;;22.83;15.77;;;;;;;;;;5032934;28;20513;-60
2023/08/30 02:18:38;;;;;;;22.90;15.77;;;;;;;;;;5032023;28;20036;-59
2023/08/30 02:21:03;;;;;;;24.77;16.58;;;;;;;;;;5032001;28;20029;-60
2023/08/30 02:23:28;;;;;;;23.85;15.68;;;;;;;;;;5033028;28;20461;-60
2023/08/30 02:25:55;;;;;;;25.88;15.70;;;;;;;;;;5032251;28;20026;-59
2023/08/30 02:28:20;;;;;;;24.33;15.75;;;;;;;;;;5031584;28;20040;-59
2023/08/30 02:30:46;;;;;;;25.00;16.02;;;;;;;;;;5032755;28;20116;-60
2023/08/30 02:33:11;;;;;;;25.27;16.10;;;;;;;;;;5049245;28;20072;-59
2023/08/30 02:35:37;;;;;;;23.52;16.63;;;;;;;;;;5051846;28;20416;-59
2023/08/30 02:38:04;;;;;;;28.90;17.73;;;;;;;;;;5052931;28;20420;-59
2023/08/30 02:40:31;;;;;;;28.90;17.23;;;;;;;;;;5052223;28;20040;-58
2023/08/30 02:42:56;;;;;;;28.10;17.75;;;;;;;;;;5051998;28;20389;-59
2023/08/30 02:45:22;;;;;;;28.60;17.15;;;;;;;;;;5052560;28;20025;-59
2023/08/30 02:47:48;;;;;;;27.88;17.67;;;;;;;;;;5048656;28;20432;-59
2023/08/30 02:50:13;;;;;;;31.65;18.33;;;;;;;;;;5052527;28;20029;-59
2023/08/30 02:52:39;;;;;;;27.92;17.50;;;;;;;;;;5051410;28;20031;-59
2023/08/30 02:55:05;;;;;;;27.98;17.98;;;;;;;;;;5052457;28;20051;-59
2023/08/30 02:57:30;;;;;;;28.55;17.73;;;;;;;;;;5052540;28;20028;-59
2023/08/30 02:59:55;;;;;;;28.63;17.27;;;;;;;;;;5050787;28;20941;-59
2023/08/30 03:02:21;;;;;;;27.92;16.67;;;;;;;;;;5041408;28;20099;-59
2023/08/30 03:04:46;;;;;;;28.75;17.30;;;;;;;;;;5053912;28;20038;-59
2023/08/30 03:07:11;;;;;;;28.67;17.90;;;;;;;;;;5032412;28;20132;-59
2023/08/30 03:09:38;;;;;;;24.73;16.77;;;;;;;;;;5035409;28;20113;-59
2023/08/30 03:12:04;;;;;;;26.95;17.45;;;;;;;;;;5052160;28;20435;-59
2023/08/30 03:14:29;;;;;;;28.65;17.10;;;;;;;;;;5051817;28;20484;-59
2023/08/30 03:16:55;;;;;;;26.77;17.83;;;;;;;;;;5049967;28;20221;-60
2023/08/30 03:19:20;;;;;;;28.17;17.83;;;;;;;;;;5046741;28;20033;-59
2023/08/30 03:21:46;;;;;;;27.52;17.38;;;;;;;;;;5029965;28;20524;-60
2023/08/30 03:24:11;;;;;;;26.55;17.27;;;;;;;;;;5032022;28;20052;-60
2023/08/30 03:26:36;;;;;;;23.65;15.98;;;;;;;;;;5046955;28;20033;-61
2023/08/30 03:29:02;;;;;;;25.95;16.25;;;;;;;;;;5031443;28;20033;-59
2023/08/30 03:31:29;;;;;;;23.15;16.05;;;;;;;;;;5047901;28;20040;-59
2023/08/30 03:33:54;;;;;;;25.30;16.30;;;;;;;;;;5050855;28;20465;-59
2023/08/30 03:36:19;;;;;;;28.08;16.15;;;;;;;;;;5051783;28;20116;-61
2023/08/30 03:38:48;;;;;;;29.52;17.13;;;;;;;;;;5050597;28;20349;-61
2023/08/30 03:41:14;;;;;;;25.20;17.10;;;;;;;;;;5051407;28;20473;-60
2023/08/30 03:43:39;;;;;;;28.35;18.15;;;;;;;;;;5050349;28;20110;-61
2023/08/30 03:46:05;;;;;;;37.28;19.13;;;;;;;;;;5050679;28;20389;-61
2023/08/30 03:48:31;;;;;;;29.77;17.98;;;;;;;;;;5048808;28;20362;-61
2023/08/30 03:50:56;;;;;;;29.25;17.95;;;;;;;;;;5029982;28;20490;-61
2023/08/30 03:53:23;;;;;;;27.33;17.33;;;;;;;;;;5031816;28;20450;-61
2023/08/30 03:55:48;;;;;;;28.25;18.08;;;;;;;;;;5032990;28;20497;-61
2023/08/30 03:58:13;;;;;;;36.30;20.65;;;;;;;;;;5032124;28;20034;-60
2023/08/30 04:00:42;;;;;;;32.67;19.80;;;;;;;;;;5047204;28;20428;-60
2023/08/30 04:03:09;;;;;;;29.02;18.33;;;;;;;;;;5052035;28;20037;-60
2023/08/30 04:05:35;;;;;;;30.98;18.60;;;;;;;;;;5051428;28;20108;-60
2023/08/30 04:08:02;;;;;;;26.67;17.45;;;;;;;;;;5050815;28;20025;-60
2023/08/30 04:10:27;;;;;;;27.40;17.27;;;;;;;;;;5051610;28;20033;-60
2023/08/30 04:12:53;;;;;;;31.98;18.08;;;;;;;;;;5050164;28;20576;-60
2023/08/30 04:15:18;;;;;;;29.08;18.63;;;;;;;;;;5033234;28;20045;-60
2023/08/30 04:17:43;;;;;;;32.60;19.35;;;;;;;;;;5030743;28;20035;-60
2023/08/30 04:20:10;;;;;;;32.88;19.48;;;;;;;;;;5031654;28;20045;-60
2023/08/30 04:22:36;;;;;;;29.27;18.65;;;;;;;;;;5031614;28;20109;-60
2023/08/30 04:25:01;;;;;;;32.47;19.55;;;;;;;;;;5030660;28;20136;-60
2023/08/30 04:27:27;;;;;;;30.38;18.08;;;;;;;;;;5036447;28;20029;-60
2023/08/30 04:29:53;;;;;;;29.10;18.50;;;;;;;;;;5049438;28;20068;-60
2023/08/30 04:32:18;;;;;;;31.10;19.27;;;;;;;;;;5035473;28;20483;-60
2023/08/30 04:34:43;;;;;;;32.47;19.50;;;;;;;;;;5033184;28;20034;-60
2023/08/30 04:37:09;;;;;;;36.95;20.38;;;;;;;;;;5051224;28;20025;-60
2023/08/30 04:39:37;;;;;;;33.42;19.33;;;;;;;;;;5051394;28;20033;-60
2023/08/30 04:42:03;;;;;;;31.17;18.90;;;;;;;;;;5045878;28;20029;-60
2023/08/30 04:44:29;;;;;;;37.38;19.88;;;;;;;;;;5048189;28;20060;-60
2023/08/30 04:46:54;;;;;;;38.63;20.10;;;;;;;;;;5050510;28;20354;-60
2023/08/30 04:49:20;;;;;;;34.65;20.25;;;;;;;;;;5050443;28;20370;-60
2023/08/30 04:51:47;;;;;;;38.63;20.98;;;;;;;;;;5048439;28;20087;-61
2023/08/30 04:54:12;;;;;;;40.40;22.02;;;;;;;;;;5050868;28;20033;-60
2023/08/30 04:56:38;;;;;;;39.03;21.27;;;;;;;;;;5050545;28;20040;-60
2023/08/30 04:59:03;;;;;;;40.10;21.60;;;;;;;;;;5032058;28;20116;-61
2023/08/30 05:01:30;;;;;;;48.05;24.00;;;;;;;;;;5040325;28;20021;-61
2023/08/30 05:03:55;;;;;;;46.75;23.10;;;;;;;;;;5053202;28;20040;-61
2023/08/30 05:06:21;;;;;;;45.13;23.77;;;;;;;;;;5054331;28;20033;-61
2023/08/30 05:08:46;;;;;;;45.80;25.23;;;;;;;;;;5054265;28;20362;-60
2023/08/30 05:11:12;;;;;;;50.50;24.67;;;;;;;;;;5054815;28;20097;-60
2023/08/30 05:13:37;;;;;;;43.70;23.80;;;;;;;;;;5053277;28;20033;-59
2023/08/30 05:16:03;;;;;;;46.80;24.73;;;;;;;;;;5050046;28;20124;-59
2023/08/30 05:18:31;;;;;;;45.47;23.80;;;;;;;;;;5049223;28;20453;-61
2023/08/30 05:20:56;;;;;;;44.03;24.50;;;;;;;;;;5036512;28;20432;-60
2023/08/30 05:23:21;;;;;;;48.08;24.27;;;;;;;;;;5049973;28;20025;-60
2023/08/30 05:25:47;;;;;;;49.28;25.40;;;;;;;;;;5036993;28;20037;-60
2023/08/30 05:28:12;;;;;;;51.28;26.63;;;;;;;;;;5053107;28;20128;-60
2023/08/30 05:30:43;;;;;;;61.08;28.45;;;;;;;;;;5052726;28;20075;-60
2023/08/30 05:33:09;;;;;;;;;;;;;;;;;;5052491;28;20070;-60
2023/08/30 05:35:34;;;;;;;54.13;25.40;;;;;;;;;;5046038;28;19920;-61
2023/08/30 05:37:59;;;;;;;47.88;24.92;;;;;;;;;;5050746;28;20037;-60
2023/08/30 05:40:25;;;;;;;57.20;28.50;;;;;;;;;;5052702;28;20076;-60
2023/08/30 05:42:50;;;;;;;57.10;27.75;;;;;;;;;;5048534;28;20124;-60
2023/08/30 05:45:16;;;;;;;55.13;27.92;;;;;;;;;;5043048;28;20032;-59
2023/08/30 05:47:41;;;;;;;53.17;27.27;;;;;;;;;;5044399;28;20033;-60
2023/08/30 05:50:07;;;;;;;50.88;27.23;;;;;;;;;;5044415;28;20615;-58
2023/08/30 05:52:33;;;;;;;63.15;29.08;;;;;;;;;;5051928;28;20029;-58
2023/08/30 05:54:58;;;;;;;48.60;27.35;;;;;;;;;;5044133;28;20036;-57
2023/08/30 05:57:25;;;;;;;62.92;29.52;;;;;;;;;;5052082;28;20468;-60
2023/08/30 05:59:50;;;;;;;57.08;27.92;;;;;;;;;;5045636;28;20077;-61
2023/08/30 06:02:16;;;;;;;59.13;28.70;;;;;;;;;;5042636;28;20507;-59
2023/08/30 06:04:41;;;;;;;61.30;28.70;;;;;;;;;;5039156;28;20026;-58
2023/08/30 06:07:06;;;;;;;60.50;28.27;;;;;;;;;;5050091;28;20773;-58
2023/08/30 06:09:33;;;;;;;57.40;28.38;;;;;;;;;;5053415;28;20103;-58
2023/08/30 06:11:59;;;;;;;57.92;28.75;;;;;;;;;;5052646;28;20220;-60
2023/08/30 06:14:24;;;;;;;54.63;29.80;;;;;;;;;;5051996;28;20049;-60
2023/08/30 06:16:49;;;;;;;57.08;28.65;;;;;;;;;;5052804;28;20078;-60
2023/08/30 06:19:15;;;;;;;54.30;29.05;;;;;;;;;;5051850;28;20047;-69
2023/08/30 06:21:40;;;;;;;57.53;28.02;;;;;;;;;;5051851;28;20029;-71
2023/08/30 06:24:06;;;;;;;54.53;29.02;;;;;;;;;;5051077;28;20033;-57
2023/08/30 06:26:31;;;;;;;53.33;28.48;;;;;;;;;;5053479;28;20135;-56
2023/08/30 06:28:56;;;;;;;53.85;28.38;;;;;;;;;;5050675;28;20029;-60
2023/08/30 06:31:22;;;;;;;52.35;28.63;;;;;;;;;;5053002;28;20104;-59
2023/08/30 06:33:48;;;;;;;55.10;28.48;;;;;;;;;;5052556;28;20201;-60
2023/08/30 06:36:17;;;;;;;54.20;29.02;;;;;;;;;;5052548;28;20052;-60
2023/08/30 06:38:43;;;;;;;49.22;28.50;;;;;;;;;;5053037;28;20029;-60
2023/08/30 06:41:08;;;;;;;55.47;29.25;;;;;;;;;;5051926;28;20029;-60
2023/08/30 06:43:34;;;;;;;51.65;28.30;;;;;;;;;;5035644;28;20398;-60
2023/08/30 06:46:00;;;;;;;48.95;28.58;;;;;;;;;;5032391;28;20104;-60
2023/08/30 06:48:28;;;;;;;51.47;27.90;;;;;;;;;;5033462;28;20061;-60
2023/08/30 06:50:58;;;;;;;45.75;26.52;;;;;;;;;;5032132;28;20119;-60
2023/08/30 06:53:23;;;;;;;41.22;25.40;;;;;;;;;;5033026;28;20021;-60
2023/08/30 06:55:59;;;;;;;41.22;24.77;;;;;;;;;;5032057;28;20109;-60
2023/08/30 06:58:25;;;;;;;38.35;23.58;;;;;;;;;;5050740;28;20032;-62
2023/08/30 07:00:50;;;;;;;38.97;24.15;;;;;;;;;;5050722;28;20035;-60
2023/08/30 07:03:16;;;;;;;35.17;22.83;;;;;;;;;;5051212;28;20056;-57
2023/08/30 07:05:43;;;;;;;33.92;22.35;;;;;;;;;;5048816;28;20112;-59
2023/08/30 07:08:08;;;;;;;34.28;22.33;;;;;;;;;;5051032;28;20036;-59
2023/08/30 07:10:34;;;;;;;30.73;21.13;;;;;;;;;;5051373;28;20037;-59
2023/08/30 07:13:00;;;;;;;32.67;21.70;;;;;;;;;;5051624;28;20029;-58
2023/08/30 07:15:25;;;;;;;30.40;20.98;;;;;;;;;;5052174;28;20130;-58
2023/08/30 07:17:51;;;;;;;29.67;21.10;;;;;;;;;;5052028;28;20033;-59
2023/08/30 07:20:17;;;;;;;31.83;21.30;;;;;;;;;;5046964;28;20056;-59
2023/08/30 07:22:42;;;;;;;29.25;20.05;;;;;;;;;;5031780;28;20109;-61
2023/08/30 07:25:10;;;;;;;27.90;18.33;;;;;;;;;;5031142;28;20037;-61
2023/08/30 07:27:35;;;;;;;29.35;18.63;;;;;;;;;;5031015;28;20120;-61
2023/08/30 07:30:01;;;;;;;24.77;17.52;;;;;;;;;;5031674;28;20112;-60
2023/08/30 07:32:27;;;;;;;28.75;17.15;;;;;;;;;;5031993;28;20033;-59
2023/08/30 07:34:52;;;;;;;25.00;17.60;;;;;;;;;;5032632;28;20036;-60
2023/08/30 07:37:21;;;;;;;23.90;15.98;;;;;;;;;;5032173;28;20036;-59
2023/08/30 07:39:46;;;;;;;26.00;15.90;;;;;;;;;;5032533;28;20029;-59
2023/08/30 07:42:13;;;;;;;21.15;15.20;;;;;;;;;;5031253;28;20109;-59
2023/08/30 07:44:38;;;;;;;18.55;13.60;;;;;;;;;;5030680;28;20371;-59
2023/08/30 07:47:04;;;;;;;20.48;14.05;;;;;;;;;;5031209;28;20040;-59
2023/08/30 07:49:29;;;;;;;17.70;13.00;;;;;;;;;;5035680;28;20401;-59
2023/08/30 07:51:55;;;;;;;20.23;13.50;;;;;;;;;;5030153;28;20037;-58
2023/08/30 07:54:20;;;;;;;18.50;12.98;;;;;;;;;;5030510;28;20036;-59
2023/08/30 07:56:45;;;;;;;18.80;12.65;;;;;;;;;;5030688;28;20029;-59
2023/08/30 07:59:12;;;;;;;15.80;12.32;;;;;;;;;;5031164;28;20025;-59
2023/08/30 08:01:38;;;;;;;18.77;11.57;;;;;;;;;;5031944;28;20037;-59
2023/08/30 08:04:03;;;;;;;15.55;10.85;;;;;;;;;;5031386;28;20347;-59
2023/08/30 08:06:29;;;;;;;15.65;11.57;;;;;;;;;;5049722;28;20029;-59
2023/08/30 08:08:54;;;;;;;15.85;11.15;;;;;;;;;;5050453;28;20033;-57
2023/08/30 08:11:20;;;;;;;15.02;11.10;;;;;;;;;;5051285;28;20033;-59
2023/08/30 08:13:45;;;;;;;15.63;10.80;;;;;;;;;;5051575;28;20373;-59
2023/08/30 08:16:11;;;;;;;14.45;10.05;;;;;;;;;;5050231;28;20052;-59
2023/08/30 08:18:36;;;;;;;12.75;9.65;;;;;;;;;;5051634;28;20031;-59
2023/08/30 08:21:02;;;;;;;12.05;9.10;;;;;;;;;;5041980;28;20037;-58
2023/08/30 08:23:27;;;;;;;12.63;8.88;;;;;;;;;;5049770;28;20500;-59
2023/08/30 08:26:00;;;;;;;12.77;8.30;;;;;;;;;;5051450;28;20025;-59
2023/08/30 08:28:26;;;;;;;11.13;7.85;;;;;;;;;;5051548;28;20036;-59
2023/08/30 08:30:51;;;;;;;11.15;8.05;;;;;;;;;;5051197;28;20029;-59
2023/08/30 08:33:17;;;;;;;11.13;7.47;;;;;;;;;;5049050;28;20032;-59
2023/08/30 08:35:43;;;;;;;11.95;7.90;;;;;;;;;;5046499;28;20021;-66
2023/08/30 08:38:10;;;;;;;11.13;7.70;;;;;;;;;;5035218;28;20034;-59
2023/08/30 08:40:41;;;;;;;11.48;7.00;;;;;;;;;;5053198;28;20388;-57
2023/08/30 08:43:09;;;;;;;12.80;7.03;;;;;;;;;;5046362;28;20108;-58
2023/08/30 08:45:38;;;;;;;9.60;6.80;;;;;;;;;;5036265;28;20127;-60
2023/08/30 08:48:07;;;;;;;11.57;6.38;;;;;;;;;;5050819;28;20155;-59
2023/08/30 08:50:33;;;;;;;10.63;6.15;;;;;;;;;;5035270;28;20128;-60
2023/08/30 08:52:59;;;;;;;10.30;5.30;;;;;;;;;;5034463;28;20136;-59
2023/08/30 08:55:26;;;;;;;11.85;6.20;;;;;;;;;;5035032;28;20104;-59
2023/08/30 08:57:53;;;;;;;7.47;5.10;;;;;;;;;;5039188;28;20121;-59
2023/08/30 09:00:19;;;;;;;10.15;5.20;;;;;;;;;;5049610;28;20045;-59
2023/08/30 09:02:46;;;;;;;10.32;5.63;;;;;;;;;;5033593;28;20115;-60
2023/08/30 09:05:11;;;;;;;7.93;5.30;;;;;;;;;;5033986;28;20493;-60
2023/08/30 09:07:37;;;;;;;7.60;5.47;;;;;;;;;;5034739;28;20037;-60
2023/08/30 09:10:03;;;;;;;7.55;4.97;;;;;;;;;;5033970;28;20040;-59
2023/08/30 09:12:33;;;;;;;8.10;4.93;;;;;;;;;;5034500;28;20033;-59
2023/08/30 09:14:59;;;;;;;10.57;5.18;;;;;;;;;;5037443;28;20057;-60
2023/08/30 09:17:36;;;;;;;9.55;4.90;;;;;;;;;;5053137;28;20040;-59
2023/08/30 09:20:11;;;;;;;9.52;4.97;;;;;;;;;;5053439;28;20470;-60
2023/08/30 09:22:40;;;;;;;10.55;5.20;;;;;;;;;;5052553;28;20035;-59
2023/08/30 09:25:11;;;;;;;11.98;5.85;;;;;;;;;;5053536;28;20056;-59
2023/08/30 09:27:38;;;;;;;9.38;5.20;;;;;;;;;;5054148;28;20032;-60
2023/08/30 09:30:05;;;;;;;7.63;5.38;;;;;;;;;;5040435;28;20363;-59
2023/08/30 09:32:31;;;;;;;8.48;5.18;;;;;;;;;;5034515;28;20474;-60
2023/08/30 09:34:56;;;;;;;9.57;5.32;;;;;;;;;;5034444;28;20061;-61
2023/08/30 09:37:22;;;;;;;7.80;5.50;;;;;;;;;;5033687;28;20104;-59
2023/08/30 09:39:52;;;;;;;8.15;6.05;;;;;;;;;;5034239;28;20036;-59
2023/08/30 09:42:17;;;;;;;12.65;5.70;;;;;;;;;;5033343;28;20117;-59
2023/08/30 09:44:43;;;;;;;9.48;6.38;;;;;;;;;;5038880;28;20461;-60
2023/08/30 09:47:09;;;;;;;8.95;6.20;;;;;;;;;;5050928;28;20534;-59
2023/08/30 09:49:43;;;;;;;10.27;7.43;;;;;;;;;;5053766;28;20028;-60
2023/08/30 09:52:09;;;;;;;12.10;8.30;;;;;;;;;;5053108;28;20043;-61
2023/08/30 09:54:41;;;;;;;12.27;7.80;;;;;;;;;;5052708;28;20048;-61
2023/08/30 09:57:07;;;;;;;10.60;7.95;;;;;;;;;;5043054;28;20041;-60
2023/08/30 09:59:32;;;;;;;10.95;7.78;;;;;;;;;;5050898;28;20037;-60
2023/08/30 10:02:00;;;;;;;9.45;7.70;;;;;;;;;;5038431;28;20500;-60
2023/08/30 10:04:27;;;;;;;10.88;8.38;;;;;;;;;;5052100;28;20549;-60
2023/08/30 10:06:54;;;;;;;11.52;8.25;;;;;;;;;;5053341;28;20469;-62
2023/08/30 10:09:21;;;;;;;12.57;8.65;;;;;;;;;;5050277;28;20072;-62
2023/08/30 10:11:47;;;;;;;11.40;8.68;;;;;;;;;;5052840;28;20037;-61
2023/08/30 10:14:13;;;;;;;12.18;8.65;;;;;;;;;;5043900;28;20317;-61
2023/08/30 10:16:47;;;;;;;10.25;6.60;;;;;;;;;;5043549;28;20159;-61
2023/08/30 10:19:38;;;;;;;11.35;7.85;;;;;;;;;;5052422;28;20029;-60
2023/08/30 10:22:08;;;;;;;12.07;7.90;;;;;;;;;;5050156;28;20091;-60
2023/08/30 10:24:41;;;;;;;12.70;8.93;;;;;;;;;;5052101;28;20106;-60
2023/08/30 10:27:08;;;;;;;12.32;8.55;;;;;;;;;;5052374;28;20028;-61
2023/08/30 10:29:36;;;;;;;13.45;8.48;;;;;;;;;;5053247;28;20025;-60
2023/08/30 10:32:03;;;;;;;11.85;7.82;;;;;;;;;;5050624;28;20090;-61
2023/08/30 10:34:35;;;;;;;14.60;8.50;;;;;;;;;;5051465;28;20036;-62
2023/08/30 10:37:01;;;;;;;12.68;7.78;;;;;;;;;;5052809;28;20039;-61
2023/08/30 10:39:48;;;;;;;16.45;9.48;;;;;;;;;;5052481;28;20032;-61
2023/08/30 10:42:15;;;;;;;15.48;8.80;;;;;;;;;;5049312;28;20068;-61
2023/08/30 10:44:50;;;;;;;13.75;9.23;;;;;;;;;;5052702;28;20452;-61
2023/08/30 10:47:29;;;;;;;13.07;8.43;;;;;;;;;;5051052;28;20037;-61
2023/08/30 10:49:59;;;;;;;19.10;9.23;;;;;;;;;;5052921;28;20112;-62
2023/08/30 10:52:26;;;;;;;16.25;9.38;;;;;;;;;;5052057;28;20079;-62
2023/08/30 10:54:51;;;;;;;13.60;8.85;;;;;;;;;;5052494;28;20429;-62
2023/08/30 10:57:25;;;;;;;13.57;9.18;;;;;;;;;;5051480;28;20104;-62
2023/08/30 11:00:07;;;;;;;12.05;8.65;;;;;;;;;;5047419;28;20391;-61
2023/08/30 11:02:34;;;;;;;13.50;8.80;;;;;;;;;;5051887;28;20036;-61
2023/08/30 11:05:00;;;;;;;11.30;8.88;;;;;;;;;;5052435;28;20039;-61
2023/08/30 11:07:25;;;;;;;13.07;8.77;;;;;;;;;;5051222;28;20834;-61
2023/08/30 11:09:54;;;;;;;12.85;10.05;;;;;;;;;;5052426;28;20025;-61
2023/08/30 11:12:22;;;;;;;17.75;10.48;;;;;;;;;;5051546;28;20033;-61
2023/08/30 11:14:48;;;;;;;14.95;10.25;;;;;;;;;;5049451;28;20568;-61
2023/08/30 11:17:16;;;;;;;16.13;11.48;;;;;;;;;;5050209;28;20373;-61
2023/08/30 11:19:42;;;;;;;17.38;11.15;;;;;;;;;;5052306;28;20033;-61
2023/08/30 11:22:08;;;;;;;17.80;12.13;;;;;;;;;;5048951;28;20045;-61
2023/08/30 11:24:34;;;;;;;18.77;12.80;;;;;;;;;;5051008;28;20106;-62
2023/08/30 11:27:00;;;;;;;22.30;14.10;;;;;;;;;;5052054;28;20416;-62
2023/08/30 11:29:29;;;;;;;21.45;15.13;;;;;;;;;;5053041;28;20033;-61
2023/08/30 11:31:54;;;;;;;24.38;14.65;;;;;;;;;;5052121;28;20061;-63
2023/08/30 11:34:23;;;;;;;21.75;14.70;;;;;;;;;;5051140;28;20472;-61
2023/08/30 11:36:50;;;;;;;23.15;14.90;;;;;;;;;;5050728;28;20489;-62
2023/08/30 11:39:18;;;;;;;29.25;15.90;;;;;;;;;;5051021;28;20025;-62
2023/08/30 11:41:44;;;;;;;21.83;14.30;;;;;;;;;;5052119;28;20025;-62
2023/08/30 11:44:10;;;;;;;20.55;14.52;;;;;;;;;;5051147;28;20082;-62
2023/08/30 11:46:35;;;;;;;20.38;14.00;;;;;;;;;;5052184;28;20029;-62
2023/08/30 11:49:02;;;;;;;21.05;13.55;;;;;;;;;;5051531;28;20042;-62
2023/08/30 11:51:29;;;;;;;20.42;14.25;;;;;;;;;;5050055;28;20043;-62
2023/08/30 11:53:55;;;;;;;20.23;13.63;;;;;;;;;;5050178;28;20086;-62
2023/08/30 11:56:22;;;;;;;22.25;13.60;;;;;;;;;;5050830;28;20036;-62
2023/08/30 11:58:48;;;;;;;19.15;13.27;;;;;;;;;;5051780;28;20044;-62
2023/08/30 12:01:14;;;;;;;19.63;13.75;;;;;;;;;;5033028;28;20033;-61
2023/08/30 12:03:39;;;;;;;18.08;12.60;;;;;;;;;;5031820;28;20068;-62
2023/08/30 12:06:12;;;;;;;18.35;13.05;;;;;;;;;;5031711;28;20069;-61
2023/08/30 12:08:37;;;;;;;17.17;11.45;;;;;;;;;;5030577;28;20121;-62
2023/08/30 12:11:03;;;;;;;17.95;11.65;;;;;;;;;;5031784;28;20114;-62
2023/08/30 12:13:31;;;;;;;14.68;11.07;;;;;;;;;;5040683;28;20041;-61
2023/08/30 12:15:58;;;;;;;40.65;17.25;;;;;;;;;;5056083;28;20538;-64
2023/08/30 12:18:26;;;;;;;15.05;10.25;;;;;;;;;;5051398;28;20048;-62
2023/08/30 12:20:53;;;;;;;20.27;11.30;;;;;;;;;;5055517;28;20029;-63
2023/08/30 12:23:23;;;;;;;17.48;11.50;;;;;;;;;;5054791;28;20112;-62
2023/08/30 12:26:03;;;;;;;13.63;9.68;;;;;;;;;;5055583;28;20029;-63
2023/08/30 12:28:30;;;;;;;17.58;9.82;;;;;;;;;;5054918;28;20075;-62
2023/08/30 12:30:56;;;;;;;11.82;8.82;;;;;;;;;;5052577;28;20045;-62
2023/08/30 12:33:22;;;;;;;12.13;8.90;;;;;;;;;;5054386;28;20386;-62
2023/08/30 12:35:48;;;;;;;15.85;10.45;;;;;;;;;;5055364;28;20021;-62
2023/08/30 12:38:17;;;;;;;15.60;11.10;;;;;;;;;;5054296;28;20050;-62
2023/08/30 12:40:44;;;;;;;13.55;8.30;;;;;;;;;;5055230;28;20029;-62
2023/08/30 12:43:10;;;;;;;11.15;8.73;;;;;;;;;;5054874;28;20082;-62
2023/08/30 12:45:36;;;;;;;10.38;8.27;;;;;;;;;;5050561;28;20033;-61
2023/08/30 12:48:01;;;;;;;12.25;9.23;;;;;;;;;;5049510;28;20038;-62
2023/08/30 12:50:28;;;;;;;12.70;9.40;;;;;;;;;;5054141;28;20036;-62
2023/08/30 12:52:54;;;;;;;11.77;9.43;;;;;;;;;;5055008;28;20029;-62
2023/08/30 12:55:19;;;;;;;13.68;9.27;;;;;;;;;;5054212;28;20066;-62
2023/08/30 12:57:46;;;;;;;12.40;9.15;;;;;;;;;;5054854;28;20025;-61
2023/08/30 13:00:15;;;;;;;11.60;8.52;;;;;;;;;;5054292;28;20036;-61
2023/08/30 13:02:40;;;;;;;10.48;8.30;;;;;;;;;;5052460;28;20116;-62
2023/08/30 13:05:06;;;;;;;10.15;8.32;;;;;;;;;;5054590;28;20430;-63
2023/08/30 13:07:31;;;;;;;12.38;8.85;;;;;;;;;;5053830;28;20035;-62
2023/08/30 13:09:57;;;;;;;11.52;8.57;;;;;;;;;;5053594;28;20107;-63
2023/08/30 13:12:22;;;;;;;11.60;9.27;;;;;;;;;;5053708;28;20037;-62
2023/08/30 13:14:48;;;;;;;12.07;8.88;;;;;;;;;;5052328;28;20159;-62
2023/08/30 13:17:13;;;;;;;11.98;8.35;;;;;;;;;;5053755;28;20033;-62
2023/08/30 13:19:39;;;;;;;15.98;9.65;;;;;;;;;;5054556;28;20033;-61
2023/08/30 13:22:04;;;;;;;12.63;9.50;;;;;;;;;;5054521;28;20071;-62
2023/08/30 13:24:32;;;;;;;11.05;8.23;;;;;;;;;;5054435;28;20040;-62
2023/08/30 13:27:00;;;;;;;10.52;7.18;;;;;;;;;;5054281;28;20428;-62
2023/08/30 13:29:25;;;;;;;11.00;7.80;;;;;;;;;;5047681;28;20029;-62
2023/08/30 13:31:51;;;;;;;12.85;7.88;;;;;;;;;;5054200;28;20029;-62
2023/08/30 13:34:16;;;;;;;11.38;7.53;;;;;;;;;;5053248;28;20032;-61
2023/08/30 13:36:41;;;;;;;12.95;7.60;;;;;;;;;;5054271;28;20111;-61
2023/08/30 13:39:07;;;;;;;12.23;8.38;;;;;;;;;;5053773;28;20436;-63
2023/08/30 13:41:34;;;;;;;11.35;7.70;;;;;;;;;;5051951;28;20387;-62
2023/08/30 13:43:59;;;;;;;10.07;7.13;;;;;;;;;;5052706;28;20037;-62
2023/08/30 13:46:24;;;;;;;11.25;7.93;;;;;;;;;;5035352;28;20078;-61
2023/08/30 13:48:50;;;;;;;12.48;7.88;;;;;;;;;;5052437;28;20335;-61
2023/08/30 13:51:23;;;;;;;10.73;7.32;;;;;;;;;;5053203;28;20480;-62
2023/08/30 13:53:49;;;;;;;14.65;8.05;;;;;;;;;;5054118;28;20059;-62
2023/08/30 13:56:14;;;;;;;12.73;7.82;;;;;;;;;;5053363;28;20025;-60
2023/08/30 13:58:39;;;;;;;11.75;7.15;;;;;;;;;;5052502;28;20047;-61
2023/08/30 14:01:05;;;;;;;10.63;7.15;;;;;;;;;;5052460;28;20033;-62
2023/08/30 14:03:31;;;;;;;10.65;7.47;;;;;;;;;;5052883;28;20021;-61
2023/08/30 14:05:56;;;;;;;9.95;7.25;;;;;;;;;;5053470;28;20558;-62
2023/08/30 14:08:22;;;;;;;10.65;7.45;;;;;;;;;;5052813;28;20107;-61
2023/08/30 14:10:50;;;;;;;11.48;7.68;;;;;;;;;;5053432;28;20115;-62
2023/08/30 14:13:16;;;;;;;11.23;7.60;;;;;;;;;;5051050;28;20041;-61
2023/08/30 14:15:42;;;;;;;8.63;6.55;;;;;;;;;;5053380;28;20118;-62
2023/08/30 14:18:08;;;;;;;9.27;6.32;;;;;;;;;;5053449;28;20032;-62
2023/08/30 14:20:33;;;;;;;9.75;5.82;;;;;;;;;;5052596;28;20192;-62